Time;durP1;ratioP1;P1;durP2;ratioP2;P2;SDS_P1;SDS_P2;PMS_P1;PMS_P2;Temp;Humidity;BMP_temperature;BMP_pressure;BME280_temperature;BME280_humidity;BME280_pressure;Samples;Min_cycle;Max_cycle;Signal;HPM_P1;HPM_P2
2022/03/11 00:01:37;;;;;;;17.45;10.23;;;;;;;8.17;41.69;101706.66;4999676;28;20033;-69
2022/03/11 00:04:02;;;;;;;17.77;10.75;;;;;;;8.16;42.12;101715.44;5009874;28;20022;-70
2022/03/11 00:06:27;;;;;;;16.58;9.60;;;;;;;8.14;42.16;101711.22;5012425;28;20030;-70
2022/03/11 00:08:53;;;;;;;15.23;10.23;;;;;;;8.10;42.18;101704.44;5012082;28;20021;-69
2022/03/11 00:11:18;;;;;;;15.85;10.00;;;;;;;8.08;42.14;101701.88;5010968;28;20034;-69
2022/03/11 00:13:43;;;;;;;16.77;9.82;;;;;;;8.06;42.13;101701.13;5024127;28;20067;-70
2022/03/11 00:16:09;;;;;;;17.90;10.20;;;;;;;8.06;42.00;101708.13;5011854;28;20045;-69
2022/03/11 00:18:34;;;;;;;18.00;10.18;;;;;;;8.02;42.36;101702.19;5017860;28;20014;-69
2022/03/11 00:20:59;;;;;;;17.85;10.25;;;;;;;7.99;42.20;101704.94;5014286;28;20064;-69
2022/03/11 00:23:25;;;;;;;15.88;10.85;;;;;;;7.98;42.40;101699.78;5011867;28;20029;-70
2022/03/11 00:25:50;;;;;;;15.75;10.70;;;;;;;7.95;42.80;101700.78;5011207;28;20354;-70
2022/03/11 00:28:16;;;;;;;17.33;10.27;;;;;;;7.92;42.62;101700.94;5008806;28;20046;-70
2022/03/11 00:30:41;;;;;;;16.65;10.60;;;;;;;7.90;42.49;101697.53;4991700;28;20038;-70
2022/03/11 00:33:07;;;;;;;16.85;11.18;;;;;;;7.86;42.18;101694.22;4992305;28;20030;-70
2022/03/11 00:35:34;;;;;;;16.35;10.02;;;;;;;7.85;43.26;101699.53;4999776;28;20134;-71
2022/03/11 00:37:59;;;;;;;16.48;10.50;;;;;;;7.83;42.95;101696.16;5010922;28;20132;-69
2022/03/11 00:40:24;;;;;;;14.85;10.15;;;;;;;7.81;42.71;101692.75;5009424;28;20035;-69
2022/03/11 00:42:50;;;;;;;17.35;10.93;;;;;;;7.77;43.56;101691.22;4992703;28;20033;-69
2022/03/11 00:45:15;;;;;;;16.73;11.13;;;;;;;7.74;43.58;101692.22;5009457;28;20026;-69
2022/03/11 00:47:41;;;;;;;16.63;10.90;;;;;;;7.72;43.82;101693.22;5012119;28;20029;-70
2022/03/11 00:50:07;;;;;;;17.33;10.82;;;;;;;7.65;43.64;101692.66;5011732;28;20037;-69
2022/03/11 00:52:33;;;;;;;19.05;11.27;;;;;;;7.64;44.07;101690.13;5011490;28;20590;-70
2022/03/11 00:54:58;;;;;;;17.00;10.68;;;;;;;7.61;43.91;101683.25;5011906;28;20390;-70
2022/03/11 00:57:23;;;;;;;15.50;10.40;;;;;;;7.57;43.74;101684.28;5013057;28;20108;-69
2022/03/11 00:59:49;;;;;;;16.75;10.82;;;;;;;7.56;44.11;101687.84;5019862;28;20481;-69
2022/03/11 01:02:14;;;;;;;16.63;10.82;;;;;;;7.51;43.82;101674.97;4992226;28;20041;-69
2022/03/11 01:04:39;;;;;;;19.05;11.18;;;;;;;7.48;43.86;101669.88;5025397;28;20078;-69
2022/03/11 01:07:05;;;;;;;19.85;11.98;;;;;;;7.44;43.94;101668.34;5030043;28;20071;-69
2022/03/11 01:09:30;;;;;;;19.77;11.13;;;;;;;7.41;44.53;101673.72;5030976;28;20026;-69
2022/03/11 01:11:56;;;;;;;17.60;11.25;;;;;;;7.38;44.52;101660.78;5029097;28;20064;-69
2022/03/11 01:14:21;;;;;;;21.55;11.63;;;;;;;7.34;44.70;101661.00;5029202;28;20462;-69
2022/03/11 01:16:46;;;;;;;17.92;11.45;;;;;;;7.31;44.20;101651.53;5016054;28;20084;-69
2022/03/11 01:19:12;;;;;;;18.85;12.85;;;;;;;7.28;44.91;101656.91;5010445;28;20033;-69
2022/03/11 01:21:37;;;;;;;20.77;12.45;;;;;;;7.24;44.82;101652.75;5009918;28;20021;-69
2022/03/11 01:24:03;;;;;;;18.02;11.95;;;;;;;7.22;44.70;101647.56;5010729;28;20018;-70
2022/03/11 01:26:29;;;;;;;19.75;12.25;;;;;;;7.18;44.34;101651.22;5010945;28;20655;-69
2022/03/11 01:28:54;;;;;;;19.05;12.10;;;;;;;7.17;44.67;101641.69;5009718;28;20054;-70
2022/03/11 01:31:19;;;;;;;18.63;10.95;;;;;;;7.15;44.45;101640.06;5010756;28;20521;-70
2022/03/11 01:33:46;;;;;;;19.25;11.45;;;;;;;7.11;44.64;101644.59;5006664;28;20601;-69
2022/03/11 01:36:13;;;;;;;17.98;11.82;;;;;;;7.09;44.68;101640.34;5005970;28;20526;-69
2022/03/11 01:38:39;;;;;;;22.48;12.27;;;;;;;7.03;45.37;101636.25;5011006;28;20109;-70
2022/03/11 01:41:05;;;;;;;23.50;11.93;;;;;;;7.01;45.22;101632.03;5010413;28;20470;-69
2022/03/11 01:43:49;;;;;;;23.27;12.40;;;;;;;7.03;45.18;101630.19;5011384;28;20076;-69
2022/03/11 01:46:14;;;;;;;20.58;12.27;;;;;;;6.96;45.02;101619.16;4991290;28;20096;-69
2022/03/11 01:48:40;;;;;;;17.25;12.02;;;;;;;6.94;44.84;101614.91;4990487;28;20470;-69
2022/03/11 01:51:05;;;;;;;18.13;11.38;;;;;;;6.90;45.43;101609.81;4995040;28;20036;-69
2022/03/11 01:53:30;;;;;;;18.67;12.13;;;;;;;6.89;45.49;101608.13;5009911;28;20029;-69
2022/03/11 01:55:56;;;;;;;17.50;11.90;;;;;;;6.88;45.46;101601.19;5009993;28;20686;-69
2022/03/11 01:58:23;;;;;;;18.10;11.90;;;;;;;6.83;45.41;101597.97;4992471;28;20459;-69
2022/03/11 02:00:48;;;;;;;19.02;11.55;;;;;;;6.82;45.08;101598.88;4991128;28;20037;-68
2022/03/11 02:03:14;;;;;;;19.48;11.85;;;;;;;6.80;44.97;101592.84;4990525;28;20030;-69
2022/03/11 02:05:39;;;;;;;20.10;11.80;;;;;;;6.77;45.31;101590.38;4990898;28;20480;-69
2022/03/11 02:08:05;;;;;;;17.75;11.27;;;;;;;6.77;45.69;101587.75;5002045;28;20033;-69
2022/03/11 02:10:30;;;;;;;19.45;11.15;;;;;;;6.76;44.99;101586.06;4990971;28;20493;-69
2022/03/11 02:12:57;;;;;;;20.23;11.63;;;;;;;6.73;45.33;101585.34;5000233;28;20282;-69
2022/03/11 02:15:24;;;;;;;19.08;12.00;;;;;;;6.73;45.20;101580.13;5018601;28;20018;-68
2022/03/11 02:17:49;;;;;;;21.45;12.13;;;;;;;6.69;45.52;101568.97;5008971;28;20597;-69
2022/03/11 02:20:14;;;;;;;19.70;11.75;;;;;;;6.69;45.26;101570.72;5026898;28;20109;-69
2022/03/11 02:22:40;;;;;;;18.45;11.75;;;;;;;6.67;45.63;101570.78;5029187;28;20052;-69
2022/03/11 02:25:07;;;;;;;19.80;11.73;;;;;;;6.64;45.33;101564.84;5028760;28;20025;-70
2022/03/11 02:27:37;;;;;;;20.20;12.68;;;;;;;6.62;45.28;101562.31;5029562;28;20029;-69
2022/03/11 02:30:12;;;;;;;16.65;11.70;;;;;;;6.60;45.58;101561.53;4990999;28;20093;-69
2022/03/11 02:32:37;;;;;;;17.75;11.70;;;;;;;6.62;45.31;101551.84;5027473;28;20087;-69
2022/03/11 02:35:02;;;;;;;17.60;11.40;;;;;;;6.60;45.02;101553.69;5007244;28;20414;-69
2022/03/11 02:37:28;;;;;;;16.13;11.50;;;;;;;6.59;45.15;101552.00;4989399;28;20058;-69
2022/03/11 02:39:55;;;;;;;19.08;11.90;;;;;;;6.58;44.95;101545.06;4990355;28;20026;-69
2022/03/11 02:42:21;;;;;;;19.35;12.00;;;;;;;6.57;45.13;101551.22;5009365;28;20040;-69
2022/03/11 02:44:46;;;;;;;23.63;11.65;;;;;;;6.56;45.06;101546.91;5009213;28;20026;-68
2022/03/11 02:47:12;;;;;;;20.13;12.13;;;;;;;6.55;45.10;101546.06;4990105;28;20022;-68
2022/03/11 02:49:37;;;;;;;17.52;11.23;;;;;;;6.55;45.24;101545.22;4990170;28;20026;-68
2022/03/11 02:52:03;;;;;;;17.45;11.88;;;;;;;6.52;44.96;101545.38;4998101;28;20382;-71
2022/03/11 02:54:28;;;;;;;17.42;11.45;;;;;;;6.51;45.36;101541.06;5010296;28;20037;-69
2022/03/11 02:56:53;;;;;;;16.95;11.63;;;;;;;6.51;45.08;101541.91;5009661;28;20025;-69
2022/03/11 02:59:19;;;;;;;17.25;11.70;;;;;;;6.53;44.80;101539.22;5009002;28;20761;-69
2022/03/11 03:01:44;;;;;;;16.02;10.93;;;;;;;6.52;45.07;101541.00;5003079;28;20041;-69
2022/03/11 03:04:11;;;;;;;16.42;11.23;;;;;;;6.51;44.86;101533.22;4990229;28;20034;-69
2022/03/11 03:06:39;;;;;;;20.05;11.43;;;;;;;6.48;45.17;101539.44;4989943;28;20030;-69
2022/03/11 03:09:05;;;;;;;23.92;11.85;;;;;;;6.48;44.74;101534.22;5008018;28;20057;-69
2022/03/11 03:11:30;;;;;;;17.08;11.15;;;;;;;6.46;44.61;101535.19;5009258;28;20046;-69
2022/03/11 03:13:56;;;;;;;17.52;11.90;;;;;;;6.44;45.21;101531.81;4994299;28;20307;-69
2022/03/11 03:16:21;;;;;;;18.15;11.70;;;;;;;6.45;44.91;101533.50;4989271;28;20511;-68
2022/03/11 03:18:47;;;;;;;16.42;11.32;;;;;;;6.44;44.37;101534.41;4989288;28;20030;-68
2022/03/11 03:21:13;;;;;;;19.88;11.55;;;;;;;6.41;44.54;101524.09;4988582;28;20364;-68
2022/03/11 03:23:38;;;;;;;18.48;11.25;;;;;;;6.42;44.67;101531.03;4989177;28;20034;-68
2022/03/11 03:26:03;;;;;;;15.65;10.70;;;;;;;6.38;44.00;101526.81;4987972;28;20463;-68
2022/03/11 03:28:29;;;;;;;15.93;11.20;;;;;;;6.37;44.59;101527.75;4988882;28;20018;-69
2022/03/11 03:30:54;;;;;;;17.50;11.32;;;;;;;6.37;44.72;101525.13;4989184;28;20562;-68
2022/03/11 03:33:19;;;;;;;15.32;11.02;;;;;;;6.35;44.99;101525.22;4989481;28;20108;-71
2022/03/11 03:35:45;;;;;;;17.88;10.57;;;;;;;6.34;45.08;101517.44;4988608;28;20038;-69
2022/03/11 03:38:10;;;;;;;17.60;11.65;;;;;;;6.34;44.89;101525.28;4990765;28;20026;-69
2022/03/11 03:40:36;;;;;;;18.13;10.77;;;;;;;6.33;44.69;101513.97;4993202;28;20022;-69
2022/03/11 03:43:01;;;;;;;15.95;10.80;;;;;;;6.32;45.14;101520.13;5005661;28;20038;-69
2022/03/11 03:45:27;;;;;;;17.80;11.10;;;;;;;6.32;44.71;101519.28;5013245;28;20068;-68
2022/03/11 03:47:52;;;;;;;17.20;11.57;;;;;;;6.29;44.36;101510.66;5003374;28;20038;-68
2022/03/11 03:50:17;;;;;;;18.70;10.73;;;;;;;6.27;45.32;101520.34;4994667;28;20105;-68
2022/03/11 03:52:43;;;;;;;17.30;10.75;;;;;;;6.27;45.46;101517.72;4999362;28;20030;-68
2022/03/11 03:55:11;;;;;;;16.67;10.70;;;;;;;6.27;44.96;101520.34;5012547;28;20482;-68
2022/03/11 03:57:39;;;;;;;15.15;10.13;;;;;;;6.26;44.99;101523.00;5014375;28;20125;-68
2022/03/11 04:00:06;;;;;;;17.10;11.88;;;;;;;6.23;45.35;101513.56;5023813;28;20025;-68
2022/03/11 04:02:32;;;;;;;16.45;10.98;;;;;;;6.25;45.08;101513.47;5011412;28;20040;-68
2022/03/11 04:04:58;;;;;;;16.98;10.85;;;;;;;6.22;45.38;101511.84;5025825;28;20017;-69
2022/03/11 04:07:23;;;;;;;14.48;10.15;;;;;;;6.21;44.76;101511.94;5033024;28;20025;-69
2022/03/11 04:09:49;;;;;;;15.52;10.48;;;;;;;6.19;44.71;101506.78;5028031;28;20498;-69
2022/03/11 04:12:14;;;;;;;16.40;10.63;;;;;;;6.17;45.30;101506.00;5012931;28;20382;-69
2022/03/11 04:14:40;;;;;;;15.40;10.32;;;;;;;6.16;44.97;101512.13;5011614;28;20057;-69
2022/03/11 04:17:05;;;;;;;18.30;10.88;;;;;;;6.14;45.12;101508.75;5024267;28;20064;-69
2022/03/11 04:19:30;;;;;;;16.38;10.68;;;;;;;6.12;45.46;101507.97;5030902;28;20082;-69
2022/03/11 04:21:56;;;;;;;16.67;11.07;;;;;;;6.10;44.85;101507.19;5030186;28;20311;-69
2022/03/11 04:24:23;;;;;;;16.35;10.35;;;;;;;6.10;45.37;101507.19;5031277;28;20032;-69
2022/03/11 04:26:48;;;;;;;16.15;10.38;;;;;;;6.08;44.97;101502.94;5030346;28;20025;-69
2022/03/11 04:29:13;;;;;;;16.75;10.60;;;;;;;6.07;45.65;101498.66;5031608;28;20036;-69
2022/03/11 04:31:39;;;;;;;15.25;10.57;;;;;;;6.06;45.15;101495.19;5030846;28;20527;-69
2022/03/11 04:34:05;;;;;;;15.30;10.25;;;;;;;6.02;44.60;101493.63;5030255;28;20087;-69
2022/03/11 04:36:38;;;;;;;14.43;9.70;;;;;;;6.02;45.42;101488.41;5031597;28;20038;-69
2022/03/11 04:39:07;;;;;;;15.63;10.40;;;;;;;6.02;44.75;101483.19;5030593;28;20033;-70
2022/03/11 04:41:36;;;;;;;14.70;9.82;;;;;;;6.01;45.43;101486.72;5030468;28;20559;-70
2022/03/11 04:44:03;;;;;;;15.25;9.82;;;;;;;6.00;45.00;101484.97;5019345;28;20486;-70
2022/03/11 04:46:29;;;;;;;16.10;10.45;;;;;;;6.00;44.89;101490.22;5010636;28;20089;-70
2022/03/11 04:48:54;;;;;;;16.23;10.27;;;;;;;6.02;44.70;101482.34;5010527;28;20502;-70
2022/03/11 04:51:22;;;;;;;13.73;9.25;;;;;;;6.00;44.96;101487.59;5010642;28;20181;-70
2022/03/11 04:53:48;;;;;;;15.98;10.05;;;;;;;6.00;44.74;101490.22;5011391;28;20116;-70
2022/03/11 04:56:13;;;;;;;16.80;9.63;;;;;;;5.99;44.55;101483.28;5011569;28;20825;-70
2022/03/11 04:58:38;;;;;;;15.43;9.70;;;;;;;5.98;45.11;101486.81;5017729;28;20116;-70
2022/03/11 05:01:05;;;;;;;16.20;10.02;;;;;;;5.98;44.59;101492.03;5016794;28;20045;-70
2022/03/11 05:03:30;;;;;;;14.10;9.55;;;;;;;5.96;45.15;101488.66;5011766;28;20076;-70
2022/03/11 05:05:55;;;;;;;15.32;10.05;;;;;;;5.96;44.95;101493.88;5020412;28;20783;-68
2022/03/11 05:08:21;;;;;;;14.48;9.60;;;;;;;5.94;44.76;101485.25;4992277;28;20031;-68
2022/03/11 05:10:46;;;;;;;14.02;9.05;;;;;;;5.93;45.25;101483.56;4992012;28;20035;-68
2022/03/11 05:13:11;;;;;;;16.52;9.45;;;;;;;5.94;45.41;101480.03;4991633;28;20089;-71
2022/03/11 05:15:38;;;;;;;13.98;9.13;;;;;;;5.93;44.58;101484.41;4992784;28;20037;-71
2022/03/11 05:18:04;;;;;;;15.77;9.50;;;;;;;5.91;45.15;101483.63;5015721;28;20045;-71
2022/03/11 05:20:29;;;;;;;13.68;9.20;;;;;;;5.91;44.97;101475.81;5009911;28;20041;-69
2022/03/11 05:22:55;;;;;;;14.75;10.23;;;;;;;5.90;44.80;101475.88;5011437;28;20022;-69
2022/03/11 05:25:20;;;;;;;15.90;9.65;;;;;;;5.90;45.25;101473.25;5011742;28;20030;-69
2022/03/11 05:27:45;;;;;;;17.05;9.70;;;;;;;5.90;45.21;101475.88;5009528;28;20041;-69
2022/03/11 05:30:11;;;;;;;13.98;10.20;;;;;;;5.89;45.65;101477.63;5009527;28;20072;-69
2022/03/11 05:32:41;;;;;;;14.88;9.57;;;;;;;5.87;45.17;101473.38;5011243;28;20390;-69
2022/03/11 05:35:07;;;;;;;17.30;9.68;;;;;;;5.86;45.40;101477.75;5008575;28;20387;-68
2022/03/11 05:37:32;;;;;;;15.27;9.32;;;;;;;5.86;46.02;101475.13;4991738;28;20059;-69
2022/03/11 05:39:58;;;;;;;13.43;9.07;;;;;;;5.84;45.52;101476.97;4990745;28;20026;-69
2022/03/11 05:42:23;;;;;;;16.33;9.73;;;;;;;5.82;45.33;101472.72;4988849;28;20402;-69
2022/03/11 05:44:49;;;;;;;17.27;9.73;;;;;;;5.81;45.77;101473.63;4995364;28;20096;-69
2022/03/11 05:47:14;;;;;;;13.07;9.70;;;;;;;5.80;45.81;101471.94;4990107;28;20518;-68
2022/03/11 05:49:39;;;;;;;15.25;9.65;;;;;;;5.79;45.64;101471.09;4990659;28;20034;-69
2022/03/11 05:52:05;;;;;;;13.98;9.35;;;;;;;5.78;45.93;101479.00;4991191;28;20108;-69
2022/03/11 05:54:30;;;;;;;17.45;9.82;;;;;;;5.75;45.68;101468.69;5009979;28;20910;-69
2022/03/11 05:56:55;;;;;;;14.25;9.55;;;;;;;5.75;46.47;101473.91;5010333;28;20367;-69
2022/03/11 05:59:22;;;;;;;16.95;9.70;;;;;;;5.73;46.33;101475.75;5022420;28;20025;-69
2022/03/11 06:01:47;;;;;;;16.05;10.38;;;;;;;5.69;46.28;101469.81;4997492;28;20487;-69
2022/03/11 06:04:12;;;;;;;15.30;10.25;;;;;;;5.70;46.39;101466.28;5008398;28;20261;-69
2022/03/11 06:06:38;;;;;;;13.75;10.18;;;;;;;5.69;46.37;101468.97;5029872;28;20013;-69
2022/03/11 06:09:03;;;;;;;16.10;9.88;;;;;;;5.67;46.46;101461.19;5029756;28;20028;-69
2022/03/11 06:11:29;;;;;;;16.38;9.35;;;;;;;5.66;46.83;101464.72;5030656;28;20383;-69
2022/03/11 06:13:54;;;;;;;16.95;10.45;;;;;;;5.65;47.05;101463.03;5030080;28;20501;-69
2022/03/11 06:16:20;;;;;;;16.55;9.75;;;;;;;5.64;46.49;101470.03;5020608;28;20472;-69
2022/03/11 06:18:45;;;;;;;16.70;9.25;;;;;;;5.63;46.85;101468.31;5030274;28;20076;-69
2022/03/11 06:21:11;;;;;;;16.77;10.38;;;;;;;5.62;47.35;101464.00;5030322;28;20017;-69
2022/03/11 06:23:37;;;;;;;14.70;10.48;;;;;;;5.62;46.71;101468.38;5028330;28;20033;-69
2022/03/11 06:26:03;;;;;;;16.02;9.98;;;;;;;5.61;47.28;101467.53;5029956;28;20029;-70
2022/03/11 06:28:29;;;;;;;14.52;9.73;;;;;;;5.62;47.41;101474.47;5030665;28;20036;-69
2022/03/11 06:30:55;;;;;;;16.75;10.13;;;;;;;5.61;47.54;101474.53;5029341;28;20033;-69
2022/03/11 06:33:23;;;;;;;15.70;10.55;;;;;;;5.60;47.28;101468.47;5030211;28;20079;-69
2022/03/11 06:35:49;;;;;;;15.85;10.18;;;;;;;5.60;47.60;101462.34;5011655;28;20089;-69
2022/03/11 06:38:14;;;;;;;19.40;10.52;;;;;;;5.59;47.79;101463.28;5009008;28;20059;-69
2022/03/11 06:40:40;;;;;;;14.55;10.13;;;;;;;5.59;47.41;101464.13;5009321;28;20466;-69
2022/03/11 06:43:05;;;;;;;16.70;10.10;;;;;;;5.60;47.29;101471.06;5009266;28;20022;-71
2022/03/11 06:45:30;;;;;;;15.27;9.80;;;;;;;5.59;48.03;101464.13;5008966;28;20532;-69
2022/03/11 06:47:56;;;;;;;15.18;10.18;;;;;;;5.60;47.63;101470.19;5009490;28;20257;-69
2022/03/11 06:50:21;;;;;;;16.63;10.70;;;;;;;5.60;47.99;101465.84;5009645;28;20025;-69
2022/03/11 06:52:46;;;;;;;16.75;10.27;;;;;;;5.60;47.70;101459.75;5008561;28;20036;-69
2022/03/11 06:55:12;;;;;;;19.60;10.60;;;;;;;5.61;48.16;101467.53;5005806;28;20030;-69
2022/03/11 06:57:38;;;;;;;15.63;10.45;;;;;;;5.63;47.95;101470.94;4993050;28;20040;-69
2022/03/11 07:00:05;;;;;;;14.32;9.85;;;;;;;5.63;47.54;101470.94;5020078;28;20101;-69
2022/03/11 07:02:31;;;;;;;16.83;10.50;;;;;;;5.65;48.17;101463.03;5009216;28;20025;-69
2022/03/11 07:04:56;;;;;;;16.95;10.98;;;;;;;5.67;48.30;101466.44;5021489;28;20464;-69
2022/03/11 07:07:22;;;;;;;16.73;10.38;;;;;;;5.69;48.52;101448.94;5013667;28;20022;-69
2022/03/11 07:09:47;;;;;;;15.82;10.73;;;;;;;5.72;48.42;101450.56;4989572;28;20027;-69
2022/03/11 07:12:13;;;;;;;20.20;10.75;;;;;;;5.74;48.27;101441.75;4988026;28;20241;-69
2022/03/11 07:14:38;;;;;;;16.60;10.30;;;;;;;5.78;48.26;101442.44;5007729;28;20109;-69
2022/03/11 07:17:05;;;;;;;14.82;10.27;;;;;;;5.83;47.88;101440.47;5020608;28;20036;-70
2022/03/11 07:19:31;;;;;;;15.90;10.98;;;;;;;5.85;48.51;101449.94;5029245;28;20101;-69
2022/03/11 07:21:59;;;;;;;17.73;10.65;;;;;;;5.90;48.55;101444.53;5029291;28;20113;-69
2022/03/11 07:24:24;;;;;;;17.88;11.38;;;;;;;5.93;48.48;101457.44;5017518;28;20022;-69
2022/03/11 07:26:50;;;;;;;16.98;11.02;;;;;;;5.96;48.19;101450.31;4997746;28;20533;-69
2022/03/11 07:29:15;;;;;;;16.90;11.00;;;;;;;6.01;47.69;101454.53;5000054;28;20030;-69
2022/03/11 07:31:41;;;;;;;19.63;11.07;;;;;;;6.06;48.28;101460.38;4999428;28;20121;-69
2022/03/11 07:34:07;;;;;;;19.42;10.82;;;;;;;6.10;48.29;101454.94;4997674;28;20025;-69
2022/03/11 07:36:34;;;;;;;17.45;10.57;;;;;;;6.15;48.15;101458.19;5000420;28;20132;-68
2022/03/11 07:39:10;;;;;;;19.70;11.35;;;;;;;6.19;48.47;101449.28;4988070;28;20018;-68
2022/03/11 07:41:36;;;;;;;17.80;10.73;;;;;;;6.24;48.21;101456.91;4998545;28;20032;-68
2022/03/11 07:44:03;;;;;;;16.13;10.95;;;;;;;6.28;47.86;101446.25;4997478;28;20019;-68
2022/03/11 07:46:29;;;;;;;19.08;11.25;;;;;;;6.33;47.46;101451.25;5001295;28;20029;-68
2022/03/11 07:48:55;;;;;;;18.65;11.52;;;;;;;6.38;48.55;101448.41;4997217;28;20097;-69
2022/03/11 07:51:21;;;;;;;18.75;11.77;;;;;;;6.41;48.24;101448.31;4998558;28;20022;-68
2022/03/11 07:53:47;;;;;;;17.30;11.48;;;;;;;6.47;48.16;101443.63;4997273;28;20033;-69
2022/03/11 07:56:14;;;;;;;18.83;11.68;;;;;;;6.52;48.20;101443.41;4988077;28;20014;-70
2022/03/11 07:58:41;;;;;;;17.10;11.02;;;;;;;6.56;48.04;101434.50;4995947;28;20030;-69
2022/03/11 08:01:08;;;;;;;17.50;11.25;;;;;;;6.62;47.94;101434.19;5017442;28;20360;-69
2022/03/11 08:03:34;;;;;;;17.88;11.25;;;;;;;6.68;47.98;101435.66;5000871;28;20027;-69
2022/03/11 08:06:00;;;;;;;17.65;11.00;;;;;;;6.73;47.56;101421.44;4989037;28;20026;-69
2022/03/11 08:08:26;;;;;;;19.30;11.48;;;;;;;6.80;48.02;101416.75;4988788;28;20026;-69
2022/03/11 08:10:52;;;;;;;19.20;12.10;;;;;;;6.85;48.01;101413.03;4994102;28;20121;-69
2022/03/11 08:13:18;;;;;;;17.40;11.82;;;;;;;6.90;47.61;101411.03;5000318;28;20017;-70
2022/03/11 08:15:43;;;;;;;22.02;11.93;;;;;;;6.95;47.92;101410.78;5003640;28;20482;-70
2022/03/11 08:18:08;;;;;;;17.05;11.50;;;;;;;7.00;47.23;101418.41;5023990;28;20025;-69
2022/03/11 08:20:33;;;;;;;17.17;11.75;;;;;;;7.08;46.96;101429.34;5027971;28;20022;-69
2022/03/11 08:22:59;;;;;;;18.20;12.35;;;;;;;7.12;47.21;101423.00;4993983;28;20525;-70
2022/03/11 08:25:26;;;;;;;17.40;11.48;;;;;;;7.18;46.88;101426.16;4992538;28;20061;-69
2022/03/11 08:27:56;;;;;;;20.33;11.60;;;;;;;7.25;47.40;101421.50;4992937;28;20502;-69
2022/03/11 08:30:23;;;;;;;17.90;12.02;;;;;;;7.32;47.53;101414.16;4992698;28;20088;-69
2022/03/11 08:32:49;;;;;;;18.27;11.40;;;;;;;7.38;47.58;101412.06;4991728;28;20019;-70
2022/03/11 08:35:14;;;;;;;20.70;12.10;;;;;;;7.47;46.96;101418.59;4992581;28;20031;-70
2022/03/11 08:37:41;;;;;;;20.30;12.38;;;;;;;7.54;47.30;101407.72;4992252;28;20030;-70
2022/03/11 08:40:10;;;;;;;17.23;11.90;;;;;;;7.62;46.81;101403.88;4992433;28;20434;-72
2022/03/11 08:42:36;;;;;;;21.23;11.65;;;;;;;7.70;46.41;101417.41;4992830;28;20117;-71
2022/03/11 08:45:03;;;;;;;21.48;12.27;;;;;;;7.79;46.57;101411.69;5005537;28;20079;-70
2022/03/11 08:47:28;;;;;;;18.70;12.20;;;;;;;7.87;46.93;101404.25;5018042;28;20024;-70
2022/03/11 08:49:54;;;;;;;24.80;12.82;;;;;;;7.95;46.59;101396.81;5024015;28;20025;-69
2022/03/11 08:52:20;;;;;;;20.95;12.48;;;;;;;8.03;46.76;101399.06;5028013;28;20033;-69
2022/03/11 08:54:46;;;;;;;20.35;12.27;;;;;;;8.10;46.70;101410.88;5011409;28;20418;-69
2022/03/11 08:57:12;;;;;;;17.80;12.20;;;;;;;8.18;46.16;101406.06;5010903;28;20026;-69
2022/03/11 08:59:37;;;;;;;19.67;12.65;;;;;;;8.25;46.24;101398.69;5023115;28;20064;-69
2022/03/11 09:02:06;;;;;;;19.65;11.93;;;;;;;8.33;46.53;101401.75;5005471;28;20494;-69
2022/03/11 09:04:32;;;;;;;20.98;11.93;;;;;;;8.41;45.88;101394.34;4991192;28;20030;-69
2022/03/11 09:06:57;;;;;;;20.38;12.20;;;;;;;8.47;46.05;101391.38;5009635;28;20033;-69
2022/03/11 09:09:22;;;;;;;19.02;12.35;;;;;;;8.56;46.31;101380.34;5005635;28;20030;-69
2022/03/11 09:11:47;;;;;;;25.02;13.07;;;;;;;8.63;45.99;101381.69;5010887;28;20120;-69
2022/03/11 09:14:13;;;;;;;20.08;12.02;;;;;;;8.72;46.18;101386.41;5010325;28;20037;-69
2022/03/11 09:16:38;;;;;;;21.35;11.88;;;;;;;8.83;45.87;101374.47;4994426;28;20062;-69
2022/03/11 09:19:03;;;;;;;22.27;12.65;;;;;;;8.89;45.81;101379.34;4993193;28;20274;-69
2022/03/11 09:21:29;;;;;;;22.58;12.63;;;;;;;8.96;45.52;101380.69;5005649;28;20026;-69
2022/03/11 09:23:55;;;;;;;20.27;13.05;;;;;;;9.03;45.38;101372.34;4994025;28;20026;-69
2022/03/11 09:26:20;;;;;;;23.42;12.40;;;;;;;9.10;45.40;101370.19;4991403;28;20485;-70
2022/03/11 09:28:45;;;;;;;20.33;12.20;;;;;;;9.18;45.84;101372.38;5004015;28;20030;-70
2022/03/11 09:31:11;;;;;;;20.63;12.52;;;;;;;9.26;45.52;101365.75;4990644;28;20478;-70
2022/03/11 09:33:40;;;;;;;19.75;12.45;;;;;;;9.35;45.95;101361.72;4991489;28;20042;-69
2022/03/11 09:36:06;;;;;;;17.98;12.43;;;;;;;9.44;45.33;101361.16;4990713;28;20038;-71
2022/03/11 09:38:32;;;;;;;20.48;12.90;;;;;;;9.55;45.47;101363.13;4994622;28;20046;-69
2022/03/11 09:40:58;;;;;;;18.23;11.75;;;;;;;9.63;44.88;101360.88;5001408;28;20050;-69
2022/03/11 09:43:25;;;;;;;20.65;12.27;;;;;;;9.71;45.21;101359.47;5001957;28;20101;-69
2022/03/11 09:45:51;;;;;;;15.82;12.07;;;;;;;9.81;44.99;101359.72;5008914;28;20029;-69
2022/03/11 09:48:17;;;;;;;21.13;13.30;;;;;;;9.91;45.34;101352.94;5000674;28;20041;-71
2022/03/11 09:50:43;;;;;;;19.35;12.00;;;;;;;10.02;45.03;101347.88;5001340;28;20172;-69
2022/03/11 09:53:09;;;;;;;18.58;12.20;;;;;;;10.13;44.68;101338.44;4994294;28;20076;-69
2022/03/11 09:55:35;;;;;;;21.95;11.93;;;;;;;10.21;44.07;101329.16;4996618;28;20033;-69
2022/03/11 09:58:03;;;;;;;16.95;11.40;;;;;;;10.29;44.52;101323.38;5004651;28;20076;-69
2022/03/11 10:00:29;;;;;;;21.73;12.52;;;;;;;10.39;44.37;101319.22;4997306;28;20114;-69
2022/03/11 10:02:55;;;;;;;18.75;11.68;;;;;;;10.49;44.51;101320.31;5000074;28;20104;-71
2022/03/11 10:05:21;;;;;;;19.67;12.10;;;;;;;10.56;44.38;101321.59;4999694;28;20092;-69
2022/03/11 10:08:01;;;;;;;19.55;12.63;;;;;;;10.66;44.35;101321.81;5007660;28;20497;-69
2022/03/11 10:10:28;;;;;;;21.85;12.65;;;;;;;10.77;43.92;101323.72;5008712;28;20494;-69
2022/03/11 10:12:54;;;;;;;19.85;12.82;;;;;;;10.83;43.43;101318.06;4999517;28;20108;-69
2022/03/11 10:15:27;;;;;;;17.77;11.98;;;;;;;10.91;43.46;101313.13;5025319;28;20478;-69
2022/03/11 10:17:55;;;;;;;20.58;12.23;;;;;;;10.99;43.74;101309.03;4994321;28;20030;-69
2022/03/11 10:20:21;;;;;;;17.90;11.88;;;;;;;11.08;43.65;101297.00;5014398;28;20401;-69
2022/03/11 10:22:47;;;;;;;19.73;12.18;;;;;;;11.18;43.95;101295.41;4999122;28;20041;-69
2022/03/11 10:25:21;;;;;;;19.15;11.65;;;;;;;11.29;43.60;101297.31;4993083;28;20039;-69
2022/03/11 10:28:08;;;;;;;19.85;12.05;;;;;;;11.42;43.40;101305.19;4998098;28;20050;-69
2022/03/11 10:30:42;;;;;;;18.83;11.55;;;;;;;11.54;43.07;101299.91;5009934;28;20025;-69
2022/03/11 10:33:16;;;;;;;21.13;12.93;;;;;;;11.68;42.92;101291.03;5008884;28;20029;-71
2022/03/11 10:35:47;;;;;;;23.05;12.05;;;;;;;11.85;43.19;101282.78;5004560;28;20046;-68
2022/03/11 10:38:30;;;;;;;17.77;11.48;;;;;;;11.96;42.99;101278.50;5004332;28;20026;-69
2022/03/11 10:40:58;;;;;;;16.52;11.88;;;;;;;12.09;42.61;101271.41;4990483;28;20030;-70
2022/03/11 10:43:25;;;;;;;19.92;11.43;;;;;;;12.23;42.47;101265.94;5003858;28;20104;-70
2022/03/11 10:45:51;;;;;;;18.15;11.63;;;;;;;12.37;42.59;101271.03;5010265;28;20084;-70
2022/03/11 10:48:17;;;;;;;18.98;11.80;;;;;;;12.51;42.15;101270.84;5010195;28;20034;-69
2022/03/11 10:50:43;;;;;;;17.55;11.85;;;;;;;12.64;41.94;101273.41;5009590;28;20804;-70
2022/03/11 10:53:10;;;;;;;18.35;11.32;;;;;;;12.77;41.77;101265.38;5010067;28;20014;-70
2022/03/11 10:55:41;;;;;;;20.35;11.23;;;;;;;12.91;41.71;101259.06;5018581;28;20025;-70
2022/03/11 10:58:07;;;;;;;15.70;10.93;;;;;;;13.04;41.51;101252.69;5029224;28;20036;-70
2022/03/11 11:00:35;;;;;;;18.95;11.60;;;;;;;13.17;41.37;101245.50;5029489;28;20401;-70
2022/03/11 11:03:04;;;;;;;19.90;12.43;;;;;;;13.26;41.36;101243.97;5028696;28;20025;-70
2022/03/11 11:05:30;;;;;;;16.33;11.73;;;;;;;13.42;41.44;101235.66;5010541;28;20057;-69
2022/03/11 11:07:57;;;;;;;18.30;12.00;;;;;;;13.56;40.98;101234.56;5008930;28;20076;-69
2022/03/11 11:10:25;;;;;;;23.77;13.65;;;;;;;13.62;40.43;101232.28;5008810;28;20083;-69
2022/03/11 11:12:51;;;;;;;18.33;12.93;;;;;;;13.77;40.49;101241.59;5009371;28;20018;-69